createdAt,value
2023-02-23T00:01:27.095Z,60.12
2023-02-23T00:03:56.745Z,60.32
2023-02-23T00:06:26.321Z,59.95
2023-02-23T00:08:53.446Z,60.08
2023-02-23T00:11:22.230Z,60.18
2023-02-23T00:13:50.863Z,59.82
2023-02-23T00:16:23.715Z,59.92
2023-02-23T00:18:53.913Z,60.29
2023-02-23T00:21:24.102Z,60.01
2023-02-23T00:23:54.768Z,59.51
2023-02-23T00:26:24.978Z,59.51
2023-02-23T00:28:53.898Z,59.59
2023-02-23T00:31:27.082Z,59.22
2023-02-23T00:33:56.247Z,59.27
2023-02-23T00:36:26.628Z,58.93
2023-02-23T00:38:55.111Z,59.05
2023-02-23T00:41:28.479Z,58.81
2023-02-23T00:43:57.101Z,58.91
2023-02-23T00:46:28.285Z,58.63
2023-02-23T00:48:57.924Z,58.48
2023-02-23T00:51:30.787Z,58.57
2023-02-23T00:53:59.394Z,58.18
2023-02-23T00:56:27.671Z,58.62
2023-02-23T00:58:55.566Z,58.32
2023-02-23T01:01:24.362Z,58.44
2023-02-23T01:03:55.775Z,58.49
2023-02-23T01:06:23.094Z,58.39
2023-02-23T01:08:56.936Z,58.27
2023-02-23T01:11:33.240Z,58.34
2023-02-23T01:14:01.356Z,58.17
2023-02-23T01:16:31.914Z,58.33
2023-02-23T01:19:03.414Z,58.37
2023-02-23T01:21:33.895Z,58.36
2023-02-23T01:24:02.248Z,58.64
2023-02-23T01:26:33.885Z,58.51
2023-02-23T01:29:04.162Z,58.61
2023-02-23T01:31:31.720Z,58.35
2023-02-23T01:34:03.360Z,58.71
2023-02-23T01:36:35.079Z,58.72
2023-02-23T01:39:06.131Z,58.71
2023-02-23T01:41:35.421Z,58.74
2023-02-23T01:44:06.183Z,58.61
2023-02-23T01:46:35.349Z,58.52
2023-02-23T01:49:06.279Z,58.74
2023-02-23T01:51:39.476Z,58.53
2023-02-23T01:54:15.719Z,58.66
2023-02-23T01:56:47.371Z,58.90
2023-02-23T01:59:17.849Z,58.69
2023-02-23T02:01:45.432Z,58.84
2023-02-23T02:04:19.466Z,58.75
2023-02-23T02:06:53.547Z,58.99
2023-02-23T02:09:28.006Z,58.66
2023-02-23T02:11:54.904Z,58.84
2023-02-23T02:14:27.158Z,58.80
2023-02-23T02:17:10.349Z,58.83
2023-02-23T02:20:37.921Z,58.90
2023-02-23T02:23:50.011Z,58.76
2023-02-23T02:26:33.428Z,59.05
2023-02-23T02:29:43.058Z,58.94
2023-02-23T02:33:06.278Z,58.89
2023-02-23T02:36:10.298Z,59.05
2023-02-23T02:38:53.873Z,58.93
2023-02-23T02:41:35.632Z,58.82
2023-02-23T02:44:15.105Z,58.90
2023-02-23T02:46:49.900Z,58.76
2023-02-23T02:49:29.856Z,58.61
2023-02-23T02:52:05.637Z,58.70
2023-02-23T02:54:40.458Z,58.54
2023-02-23T02:57:11.057Z,58.68
2023-02-23T03:00:05.256Z,58.73
2023-02-23T03:02:53.971Z,58.57
2023-02-23T03:05:47.474Z,58.84
2023-02-23T03:08:41.168Z,58.82
2023-02-23T03:11:31.317Z,58.83
2023-02-23T03:14:35.763Z,58.64
2023-02-23T03:17:31.913Z,58.71
2023-02-23T03:20:29.401Z,58.97
2023-02-23T03:23:24.220Z,58.85
2023-02-23T03:26:20.622Z,58.87
2023-02-23T03:29:18.310Z,58.97
2023-02-23T03:32:12.232Z,58.98
2023-02-23T03:35:05.739Z,59.20
2023-02-23T03:37:59.575Z,59.10
2023-02-23T03:40:52.045Z,58.81
2023-02-23T03:43:43.573Z,58.96
2023-02-23T03:46:33.653Z,59.08
2023-02-23T03:49:23.152Z,59.04
2023-02-23T03:52:15.367Z,58.85
2023-02-23T03:55:12.625Z,58.92
2023-02-23T03:58:01.761Z,58.88
2023-02-23T04:00:52.945Z,59.08
2023-02-23T04:03:42.264Z,59.11
2023-02-23T04:06:33.082Z,59.18
2023-02-23T04:09:24.930Z,58.96
2023-02-23T04:12:18.613Z,59.02
2023-02-23T04:14:56.063Z,59.24
2023-02-23T04:17:28.280Z,59.22
2023-02-23T04:19:57.473Z,59.05
2023-02-23T04:22:25.128Z,59.34
2023-02-23T04:24:52.513Z,59.30
2023-02-23T04:27:19.506Z,59.29
2023-02-23T04:29:46.834Z,59.39
2023-02-23T04:32:17.441Z,59.34
2023-02-23T04:34:44.917Z,59.29
2023-02-23T04:37:13.718Z,59.27
2023-02-23T04:39:42.608Z,59.46
2023-02-23T04:42:10.097Z,59.66
2023-02-23T04:44:37.040Z,59.50
2023-02-23T04:47:04.093Z,59.50
2023-02-23T04:49:31.026Z,59.63
2023-02-23T04:51:58.131Z,59.56
2023-02-23T04:54:26.928Z,59.56
2023-02-23T04:56:53.991Z,59.59
2023-02-23T04:59:20.988Z,59.73
2023-02-23T05:01:48.296Z,59.60
2023-02-23T05:04:15.228Z,59.59
2023-02-23T05:06:42.874Z,59.49
2023-02-23T05:09:10.091Z,59.68
2023-02-23T05:11:38.329Z,59.57
2023-02-23T05:14:05.418Z,59.32
2023-02-23T05:16:32.413Z,59.67
2023-02-23T05:18:59.359Z,59.71
2023-02-23T05:21:26.349Z,59.87
2023-02-23T05:23:53.273Z,59.60
2023-02-23T05:26:20.343Z,59.88
2023-02-23T05:28:48.781Z,59.80
2023-02-23T05:31:15.902Z,59.90
2023-02-23T05:33:43.084Z,59.97
2023-02-23T05:36:12.266Z,59.70
2023-02-23T05:38:40.578Z,59.80
2023-02-23T05:41:08.040Z,59.77
2023-02-23T05:43:35.312Z,60.11
2023-02-23T05:46:07.011Z,59.88
2023-02-23T05:48:34.964Z,60.28
2023-02-23T05:51:03.079Z,59.97
2023-02-23T05:53:30.229Z,59.86
2023-02-23T05:55:57.360Z,59.82
2023-02-23T05:58:25.027Z,60.11
2023-02-23T06:00:53.091Z,59.79
2023-02-23T06:03:22.487Z,59.88
2023-02-23T06:05:54.854Z,59.87
2023-02-23T06:08:23.015Z,60.13
2023-02-23T06:10:49.893Z,59.98
2023-02-23T06:13:17.953Z,59.87
2023-02-23T06:15:45.248Z,59.82
2023-02-23T06:18:12.592Z,59.82
2023-02-23T06:20:40.974Z,59.82
2023-02-23T06:23:08.080Z,60.11
2023-02-23T06:25:35.152Z,60.00
2023-02-23T06:28:02.182Z,59.88
2023-02-23T06:30:29.510Z,59.96
2023-02-23T06:32:56.413Z,59.88
2023-02-23T06:35:24.162Z,59.76
2023-02-23T06:37:52.549Z,59.93
2023-02-23T06:40:20.584Z,59.91
2023-02-23T06:42:47.659Z,59.87
2023-02-23T06:45:14.605Z,59.82
2023-02-23T06:47:41.639Z,59.84
2023-02-23T06:50:10.598Z,60.00
2023-02-23T06:52:37.952Z,59.97
2023-02-23T06:55:08.936Z,59.90
2023-02-23T06:57:35.945Z,59.85
2023-02-23T07:00:04.143Z,60.22
2023-02-23T07:02:31.696Z,60.17
2023-02-23T07:04:58.811Z,59.86
2023-02-23T07:07:25.971Z,59.92
2023-02-23T07:09:52.892Z,59.89
2023-02-23T07:12:21.169Z,59.71
2023-02-23T07:14:48.093Z,59.56
2023-02-23T07:17:15.031Z,59.37
2023-02-23T07:19:42.009Z,59.53
2023-02-23T07:22:09.075Z,59.41
2023-02-23T07:24:36.181Z,59.23
2023-02-23T07:27:03.094Z,59.57
2023-02-23T07:29:31.441Z,59.59
2023-02-23T07:31:58.403Z,59.58
2023-02-23T07:34:25.514Z,59.21
2023-02-23T07:36:52.400Z,59.13
2023-02-23T07:39:19.358Z,58.96
2023-02-23T07:41:46.305Z,59.26
2023-02-23T07:44:13.213Z,58.93
2023-02-23T07:46:41.858Z,58.99
2023-02-23T07:49:09.340Z,59.01
2023-02-23T07:51:36.188Z,58.74
2023-02-23T07:54:05.015Z,58.73
2023-02-23T07:56:32.522Z,58.31
2023-02-23T07:58:59.707Z,58.13
2023-02-23T08:01:26.681Z,57.98
2023-02-23T08:03:55.047Z,58.08
2023-02-23T08:06:22.038Z,57.79
2023-02-23T08:08:49.187Z,57.79
2023-02-23T08:11:16.177Z,57.89
2023-02-23T08:13:43.146Z,57.66
2023-02-23T08:16:12.337Z,57.92
2023-02-23T08:18:39.453Z,57.57
2023-02-23T08:21:07.886Z,57.59
2023-02-23T08:23:35.513Z,57.96
2023-02-23T08:26:03.101Z,57.74
2023-02-23T08:28:31.344Z,57.54
2023-02-23T08:30:59.375Z,57.79
2023-02-23T08:33:26.546Z,57.94
2023-02-23T08:35:53.554Z,58.16
2023-02-23T08:38:21.885Z,58.24
2023-02-23T08:40:48.755Z,58.06
2023-02-23T08:43:16.335Z,58.22
2023-02-23T08:45:43.454Z,57.82
2023-02-23T08:48:10.383Z,57.70
2023-02-23T08:50:37.303Z,57.78
2023-02-23T08:53:05.234Z,58.07
2023-02-23T08:55:35.515Z,57.84
2023-02-23T08:58:02.430Z,57.75
2023-02-23T09:00:29.359Z,57.89
2023-02-23T09:02:56.308Z,57.63
2023-02-23T09:05:23.313Z,57.05
2023-02-23T09:07:50.759Z,57.34
2023-02-23T09:10:20.327Z,57.00
2023-02-23T09:12:48.640Z,57.09
2023-02-23T09:15:15.576Z,57.29
2023-02-23T09:17:44.742Z,57.04
2023-02-23T09:20:15.664Z,57.19
2023-02-23T09:22:48.588Z,57.27
2023-02-23T09:25:18.208Z,57.11
2023-02-23T09:27:45.469Z,57.07
2023-02-23T09:30:17.642Z,57.25
2023-02-23T09:32:45.451Z,57.07
2023-02-23T09:35:12.607Z,56.90
2023-02-23T09:37:39.500Z,56.72
2023-02-23T09:40:10.333Z,57.03
2023-02-23T09:42:46.034Z,57.40
2023-02-23T09:45:27.039Z,57.21
2023-02-23T09:48:13.969Z,57.14
2023-02-23T09:50:47.575Z,57.42
2023-02-23T09:53:33.990Z,57.78
2023-02-23T09:56:05.351Z,57.81
2023-02-23T09:58:34.524Z,57.26
2023-02-23T10:01:38.447Z,57.36
2023-02-23T10:04:15.777Z,57.38
2023-02-23T10:06:51.007Z,57.28
2023-02-23T10:09:35.919Z,56.96
2023-02-23T10:12:11.381Z,57.14
2023-02-23T10:15:10.303Z,56.92
2023-02-23T10:17:53.619Z,57.06
2023-02-23T10:20:29.960Z,57.05
2023-02-23T10:23:04.804Z,57.02
2023-02-23T10:25:38.004Z,57.10
2023-02-23T10:28:05.649Z,57.31
2023-02-23T10:30:34.753Z,56.88
2023-02-23T10:33:15.235Z,57.16
2023-02-23T10:35:43.033Z,56.75
2023-02-23T10:38:16.099Z,57.15
2023-02-23T10:40:46.419Z,56.72
2023-02-23T10:43:14.309Z,56.97
2023-02-23T10:45:46.387Z,56.75
2023-02-23T10:48:22.664Z,56.56
2023-02-23T10:50:53.773Z,56.96
2023-02-23T10:53:26.477Z,57.11
2023-02-23T10:56:08.010Z,57.15
2023-02-23T10:58:43.460Z,56.88
2023-02-23T11:01:11.319Z,56.55
2023-02-23T11:03:44.867Z,56.80
2023-02-23T11:06:31.093Z,56.85
2023-02-23T11:08:58.170Z,56.73
2023-02-23T11:11:31.249Z,56.72
2023-02-23T11:13:58.620Z,56.69
2023-02-23T11:16:30.692Z,56.78
2023-02-23T11:19:01.636Z,56.83
2023-02-23T11:21:34.670Z,57.22
2023-02-23T11:24:18.071Z,57.11
2023-02-23T11:26:48.639Z,57.54
2023-02-23T11:29:24.375Z,57.31
2023-02-23T11:31:55.750Z,57.39
2023-02-23T11:34:30.525Z,57.36
2023-02-23T11:37:08.034Z,57.58
2023-02-23T11:39:35.378Z,57.47
2023-02-23T11:42:22.129Z,57.71
2023-02-23T11:45:03.134Z,57.58
2023-02-23T11:47:32.795Z,57.63
2023-02-23T11:50:04.687Z,57.39
2023-02-23T11:52:32.315Z,57.51
2023-02-23T11:55:05.386Z,57.59
2023-02-23T11:57:35.498Z,57.79
2023-02-23T12:00:11.097Z,57.80
2023-02-23T12:02:51.547Z,58.00
2023-02-23T12:05:24.526Z,57.66
2023-02-23T12:08:01.358Z,58.09
2023-02-23T12:10:36.932Z,57.05
2023-02-23T12:13:26.388Z,57.72
2023-02-23T12:16:02.660Z,57.65
2023-02-23T12:18:46.069Z,58.12
2023-02-23T12:21:29.879Z,58.23
2023-02-23T12:24:14.510Z,58.04
2023-02-23T12:26:51.054Z,58.41
2023-02-23T12:29:31.066Z,58.25
2023-02-23T12:32:02.966Z,58.16
2023-02-23T12:34:39.475Z,58.18
2023-02-23T12:37:29.114Z,58.33
2023-02-23T12:40:03.985Z,58.25
2023-02-23T12:42:42.778Z,58.09
2023-02-23T12:45:21.956Z,58.37
2023-02-23T12:47:59.427Z,58.43
2023-02-23T12:50:32.020Z,58.03
2023-02-23T12:53:18.072Z,58.01
2023-02-23T12:56:04.295Z,58.68
2023-02-23T12:58:45.594Z,58.89
2023-02-23T13:01:22.613Z,58.35
2023-02-23T13:04:12.683Z,58.03
2023-02-23T13:06:54.999Z,57.83
2023-02-23T13:09:43.816Z,57.84
2023-02-23T13:12:36.026Z,57.72
2023-02-23T13:15:23.521Z,57.45
2023-02-23T13:18:02.018Z,57.12
2023-02-23T13:20:37.262Z,56.92
2023-02-23T13:23:17.059Z,56.57
2023-02-23T13:25:58.041Z,56.55
2023-02-23T13:28:40.116Z,55.84
2023-02-23T13:31:23.355Z,55.86
2023-02-23T13:33:53.890Z,55.87
2023-02-23T13:36:23.477Z,55.91
2023-02-23T13:39:22.283Z,55.46
2023-02-23T13:42:11.173Z,55.10
2023-02-23T13:44:49.256Z,54.76
2023-02-23T13:47:34.713Z,54.54
2023-02-23T13:50:16.127Z,54.28
2023-02-23T13:52:59.142Z,54.56
2023-02-23T13:55:49.531Z,54.27
2023-02-23T13:58:26.937Z,54.25
2023-02-23T14:01:05.870Z,53.99
2023-02-23T14:03:47.032Z,53.83
2023-02-23T14:06:18.198Z,54.16
2023-02-23T14:08:53.281Z,54.20
2023-02-23T14:11:49.182Z,53.81
2023-02-23T14:14:43.526Z,53.82
2023-02-23T14:17:57.386Z,53.29
2023-02-23T14:20:53.873Z,53.18
2023-02-23T14:23:36.077Z,53.49
2023-02-23T14:26:15.175Z,52.98
2023-02-23T14:28:44.969Z,53.00
2023-02-23T14:31:25.152Z,53.07
2023-02-23T14:33:59.908Z,52.75
2023-02-23T14:36:45.045Z,52.59
2023-02-23T14:39:23.374Z,52.51
2023-02-23T14:41:54.340Z,52.36
2023-02-23T14:44:30.511Z,52.26
2023-02-23T14:47:06.361Z,52.29
2023-02-23T14:49:40.266Z,52.10
2023-02-23T14:52:13.836Z,51.76
2023-02-23T14:54:41.520Z,51.85
2023-02-23T14:57:20.138Z,51.92
2023-02-23T14:59:56.353Z,52.33
2023-02-23T15:02:28.394Z,51.81
2023-02-23T15:04:56.583Z,51.88
2023-02-23T15:07:36.158Z,51.69
2023-02-23T15:10:12.752Z,51.48
2023-02-23T15:12:42.893Z,51.79
2023-02-23T15:15:18.770Z,51.75
2023-02-23T15:17:54.946Z,51.82
2023-02-23T15:20:32.841Z,52.01
2023-02-23T15:23:05.865Z,52.46
2023-02-23T15:25:44.537Z,52.38
2023-02-23T15:28:33.089Z,52.13
2023-02-23T15:31:02.505Z,52.34
2023-02-23T15:33:31.115Z,52.47
2023-02-23T15:36:08.344Z,52.51
2023-02-23T15:38:44.304Z,52.61
2023-02-23T15:41:25.332Z,52.55
2023-02-23T15:43:52.616Z,52.92
2023-02-23T15:46:26.817Z,52.73
2023-02-23T15:49:00.784Z,52.60
2023-02-23T15:51:36.371Z,52.66
2023-02-23T15:54:13.838Z,53.27
2023-02-23T15:56:41.489Z,54.07
2023-02-23T15:59:17.028Z,53.88
2023-02-23T16:01:46.345Z,54.58
2023-02-23T16:04:21.637Z,54.67
2023-02-23T16:06:55.700Z,55.30
2023-02-23T16:09:29.451Z,55.55
2023-02-23T16:12:03.066Z,55.63
2023-02-23T16:14:42.570Z,56.05
2023-02-23T16:17:26.088Z,56.07
2023-02-23T16:20:11.013Z,56.47
2023-02-23T16:22:39.886Z,56.77
2023-02-23T16:25:13.846Z,56.66
2023-02-23T16:27:44.593Z,56.78
2023-02-23T16:30:23.977Z,56.43
2023-02-23T16:33:10.884Z,56.28
2023-02-23T16:35:46.306Z,56.10
2023-02-23T16:38:20.530Z,56.08
2023-02-23T16:40:48.702Z,55.17
2023-02-23T16:43:16.286Z,55.24
2023-02-23T16:45:44.005Z,55.09
2023-02-23T16:48:14.576Z,54.83
2023-02-23T16:50:45.365Z,54.96
2023-02-23T16:53:14.249Z,54.88
2023-02-23T16:55:54.978Z,55.37
2023-02-23T16:58:25.949Z,55.27
2023-02-23T17:00:53.666Z,55.43
2023-02-23T17:03:24.970Z,55.17
2023-02-23T17:05:54.170Z,55.51
2023-02-23T17:08:21.801Z,55.16
2023-02-23T17:10:52.348Z,55.55
2023-02-23T17:13:22.362Z,55.34
2023-02-23T17:15:55.974Z,55.19
2023-02-23T17:21:03.803Z,55.22
2023-02-23T17:23:42.411Z,54.60
2023-02-23T17:26:11.822Z,54.87
2023-02-23T17:28:39.769Z,54.92
2023-02-23T17:31:08.257Z,54.63
2023-02-23T17:33:36.990Z,54.69
2023-02-23T17:36:10.344Z,54.83
2023-02-23T17:38:38.501Z,54.35
2023-02-23T17:41:08.813Z,54.31
2023-02-23T17:43:37.511Z,54.38
2023-02-23T17:46:05.747Z,54.69
2023-02-23T17:48:35.408Z,53.90
2023-02-23T17:51:08.263Z,53.95
2023-02-23T17:53:35.863Z,53.84
2023-02-23T17:56:02.809Z,54.04
2023-02-23T17:58:30.064Z,53.46
2023-02-23T18:00:59.123Z,53.31
2023-02-23T18:03:32.258Z,53.67
2023-02-23T18:06:00.822Z,53.17
2023-02-23T18:08:29.879Z,53.37
2023-02-23T18:10:58.275Z,53.17
2023-02-23T18:13:26.855Z,53.26
2023-02-23T18:15:58.362Z,53.39
2023-02-23T18:18:25.345Z,53.13
2023-02-23T18:20:55.465Z,53.34
2023-02-23T18:23:24.423Z,53.08
2023-02-23T18:25:52.658Z,52.75
2023-02-23T18:28:19.666Z,52.56
2023-02-23T18:30:46.869Z,52.64
2023-02-23T18:33:16.706Z,53.31
2023-02-23T18:35:47.428Z,53.00
2023-02-23T18:38:15.772Z,53.27
2023-02-23T18:40:42.919Z,53.21
2023-02-23T18:43:11.450Z,53.00
2023-02-23T18:45:38.345Z,52.88
2023-02-23T18:48:13.270Z,52.73
2023-02-23T18:50:41.141Z,52.89
2023-02-23T18:53:10.773Z,52.62
2023-02-23T18:55:38.468Z,52.55
2023-02-23T18:58:05.664Z,52.94
2023-02-23T19:00:40.032Z,52.92
2023-02-23T19:03:07.341Z,52.46
2023-02-23T19:05:36.164Z,52.61
2023-02-23T19:08:03.987Z,52.47
2023-02-23T19:10:30.874Z,52.35
2023-02-23T19:12:57.769Z,52.39
2023-02-23T19:15:25.266Z,52.29
2023-02-23T19:17:54.319Z,52.68
2023-02-23T19:20:22.754Z,52.23
2023-02-23T19:22:49.818Z,52.82
2023-02-23T19:25:17.003Z,52.61
2023-02-23T19:27:44.006Z,53.01
2023-02-23T19:30:13.501Z,53.01
2023-02-23T19:32:40.776Z,53.23
2023-02-23T19:35:14.599Z,52.51
2023-02-23T19:37:47.386Z,52.53
2023-02-23T19:40:16.622Z,52.52
2023-02-23T19:42:45.795Z,52.46
2023-02-23T19:45:13.282Z,52.52
2023-02-23T19:47:40.544Z,52.36
2023-02-23T19:50:13.288Z,52.32
2023-02-23T19:52:40.255Z,51.86
2023-02-23T19:55:08.694Z,52.12
2023-02-23T19:57:35.605Z,51.91
2023-02-23T20:00:04.651Z,51.72
2023-02-23T20:02:31.601Z,51.59
2023-02-23T20:04:58.531Z,51.11
2023-02-23T20:07:26.858Z,51.04
2023-02-23T20:09:53.968Z,50.99
2023-02-23T20:12:20.903Z,50.45
2023-02-23T20:14:49.458Z,50.21
2023-02-23T20:17:16.358Z,50.19
2023-02-23T20:19:43.278Z,50.25
2023-02-23T20:22:10.254Z,50.04
2023-02-23T20:24:38.453Z,50.39
2023-02-23T20:27:05.312Z,50.21
2023-02-23T20:29:34.034Z,50.20
2023-02-23T20:32:02.648Z,49.90
2023-02-23T20:34:29.935Z,49.77
2023-02-23T20:36:56.880Z,50.13
2023-02-23T20:39:24.706Z,50.28
2023-02-23T20:41:53.662Z,50.94
2023-02-23T20:44:23.200Z,50.51
2023-02-23T20:46:50.877Z,50.88
2023-02-23T20:49:18.960Z,50.91
2023-02-23T20:51:48.407Z,51.38
2023-02-23T20:54:16.779Z,51.53
2023-02-23T20:56:44.946Z,51.57
2023-02-23T20:59:13.700Z,51.10
2023-02-23T21:01:42.509Z,51.31
2023-02-23T21:04:09.693Z,51.13
2023-02-23T21:06:36.900Z,51.45
2023-02-23T21:09:12.419Z,51.70
2023-02-23T21:11:39.386Z,51.40
2023-02-23T21:14:08.274Z,51.83
2023-02-23T21:16:40.745Z,51.19
2023-02-23T21:19:07.823Z,51.20
2023-02-23T21:21:39.296Z,51.55
2023-02-23T21:24:06.760Z,51.19
2023-02-23T21:26:33.870Z,51.14
2023-02-23T21:29:02.701Z,51.30
2023-02-23T21:31:30.497Z,51.30
2023-02-23T21:33:58.797Z,51.31
2023-02-23T21:36:25.722Z,51.43
2023-02-23T21:38:52.650Z,51.05
2023-02-23T21:41:19.971Z,51.07
2023-02-23T21:43:48.462Z,51.13
2023-02-23T21:46:16.692Z,51.06
2023-02-23T21:48:44.456Z,50.72
2023-02-23T21:51:16.553Z,50.67
2023-02-23T21:53:45.708Z,50.59
2023-02-23T21:56:15.481Z,50.51
2023-02-23T21:58:47.564Z,50.93
2023-02-23T22:01:18.970Z,50.70
2023-02-23T22:03:48.040Z,51.25
2023-02-23T22:06:20.889Z,50.74
2023-02-23T22:08:52.361Z,50.59
2023-02-23T22:11:24.699Z,50.41
2023-02-23T22:13:58.664Z,50.86
2023-02-23T22:16:28.613Z,50.38
2023-02-23T22:18:55.526Z,50.78
2023-02-23T22:21:24.470Z,50.80
2023-02-23T22:23:53.262Z,50.54
2023-02-23T22:26:20.140Z,49.94
2023-02-23T22:28:47.045Z,49.88
2023-02-23T22:31:14.572Z,50.33
2023-02-23T22:33:43.913Z,49.79
2023-02-23T22:36:14.627Z,50.56
2023-02-23T22:38:42.898Z,50.01
2023-02-23T22:41:10.964Z,50.18
2023-02-23T22:43:38.666Z,49.74
2023-02-23T22:46:07.785Z,50.16
2023-02-23T22:48:35.749Z,49.85
2023-02-23T22:51:04.026Z,50.42
2023-02-23T22:53:31.276Z,50.10
2023-02-23T22:55:59.585Z,49.92
2023-02-23T22:58:26.851Z,50.29
2023-02-23T23:01:04.712Z,49.82
2023-02-23T23:03:35.637Z,50.12
2023-02-23T23:06:04.621Z,49.94
2023-02-23T23:08:38.536Z,50.04
2023-02-23T23:11:10.343Z,49.99
2023-02-23T23:13:43.157Z,49.97
2023-02-23T23:16:16.785Z,49.96
2023-02-23T23:18:55.933Z,50.09
2023-02-23T23:21:26.227Z,50.11
2023-02-23T23:23:56.944Z,49.52
2023-02-23T23:26:27.875Z,49.67
2023-02-23T23:28:57.809Z,50.03
2023-02-23T23:31:30.586Z,50.22
2023-02-23T23:34:00.346Z,49.83
2023-02-23T23:36:33.313Z,49.31
2023-02-23T23:39:01.678Z,49.52
2023-02-23T23:41:35.652Z,49.26
2023-02-23T23:44:05.134Z,49.84
2023-02-23T23:46:35.438Z,49.29
2023-02-23T23:49:05.972Z,49.77
2023-02-23T23:51:38.747Z,49.52
2023-02-23T23:54:08.568Z,49.19
2023-02-23T23:56:37.375Z,49.53
2023-02-23T23:59:07.561Z,49.08
